sensor_id;sensor_type;location;lat;lon;timestamp;temperature;humidity
3602;DHT22;1815;50.950;6.920;2022-12-20T00:02:13;14.40;99.90
3602;DHT22;1815;50.950;6.920;2022-12-20T00:04:39;14.40;99.90
3602;DHT22;1815;50.950;6.920;2022-12-20T00:07:05;14.40;99.90
3602;DHT22;1815;50.950;6.920;2022-12-20T00:09:31;14.40;99.90
3602;DHT22;1815;50.950;6.920;2022-12-20T00:11:56;14.40;99.90
3602;DHT22;1815;50.950;6.920;2022-12-20T00:14:22;14.40;99.90
3602;DHT22;1815;50.950;6.920;2022-12-20T00:16:48;14.40;99.90
3602;DHT22;1815;50.950;6.920;2022-12-20T00:19:14;14.40;99.90
3602;DHT22;1815;50.950;6.920;2022-12-20T00:21:39;14.40;99.90
3602;DHT22;1815;50.950;6.920;2022-12-20T00:24:05;14.40;99.90
3602;DHT22;1815;50.950;6.920;2022-12-20T00:26:32;14.40;99.90
3602;DHT22;1815;50.950;6.920;2022-12-20T00:28:59;14.40;99.90
3602;DHT22;1815;50.950;6.920;2022-12-20T00:31:27;14.50;99.90
3602;DHT22;1815;50.950;6.920;2022-12-20T00:33:55;14.40;99.90
3602;DHT22;1815;50.950;6.920;2022-12-20T00:36:23;14.40;99.90
3602;DHT22;1815;50.950;6.920;2022-12-20T00:38:51;14.30;99.90
3602;DHT22;1815;50.950;6.920;2022-12-20T00:41:19;14.20;99.90
3602;DHT22;1815;50.950;6.920;2022-12-20T00:43:46;14.10;99.90
3602;DHT22;1815;50.950;6.920;2022-12-20T00:46:14;14.10;99.90
3602;DHT22;1815;50.950;6.920;2022-12-20T00:48:40;14.00;99.90
3602;DHT22;1815;50.950;6.920;2022-12-20T00:51:28;13.90;99.90
3602;DHT22;1815;50.950;6.920;2022-12-20T00:53:53;13.80;99.90
3602;DHT22;1815;50.950;6.920;2022-12-20T00:56:19;13.80;99.90
3602;DHT22;1815;50.950;6.920;2022-12-20T00:58:45;13.70;99.90
3602;DHT22;1815;50.950;6.920;2022-12-20T01:01:23;13.60;99.90
3602;DHT22;1815;50.950;6.920;2022-12-20T01:03:49;13.60;99.90
3602;DHT22;1815;50.950;6.920;2022-12-20T01:06:16;13.60;99.90
3602;DHT22;1815;50.950;6.920;2022-12-20T01:08:42;13.50;99.90
3602;DHT22;1815;50.950;6.920;2022-12-20T01:11:17;13.50;99.90
3602;DHT22;1815;50.950;6.920;2022-12-20T01:13:47;13.50;99.90
3602;DHT22;1815;50.950;6.920;2022-12-20T01:16:16;13.40;99.90
3602;DHT22;1815;50.950;6.920;2022-12-20T01:18:42;13.40;99.90
3602;DHT22;1815;50.950;6.920;2022-12-20T01:21:10;13.40;99.90
3602;DHT22;1815;50.950;6.920;2022-12-20T01:23:37;13.40;99.90
3602;DHT22;1815;50.950;6.920;2022-12-20T01:26:05;13.40;99.90
3602;DHT22;1815;50.950;6.920;2022-12-20T01:28:34;13.30;99.90
3602;DHT22;1815;50.950;6.920;2022-12-20T01:31:00;13.40;99.90
3602;DHT22;1815;50.950;6.920;2022-12-20T01:33:26;13.40;99.90
3602;DHT22;1815;50.950;6.920;2022-12-20T01:36:03;13.40;99.90
3602;DHT22;1815;50.950;6.920;2022-12-20T01:38:30;13.30;99.90
3602;DHT22;1815;50.950;6.920;2022-12-20T01:40:56;13.30;99.90
3602;DHT22;1815;50.950;6.920;2022-12-20T01:43:23;13.40;99.90
3602;DHT22;1815;50.950;6.920;2022-12-20T01:45:50;13.40;99.90
3602;DHT22;1815;50.950;6.920;2022-12-20T01:48:21;13.40;99.90
3602;DHT22;1815;50.950;6.920;2022-12-20T01:50:50;13.40;99.90
3602;DHT22;1815;50.950;6.920;2022-12-20T01:53:18;13.40;99.90
3602;DHT22;1815;50.950;6.920;2022-12-20T01:55:45;13.40;99.90
3602;DHT22;1815;50.950;6.920;2022-12-20T01:58:13;13.40;99.90
3602;DHT22;1815;50.950;6.920;2022-12-20T02:00:40;13.40;99.90
3602;DHT22;1815;50.950;6.920;2022-12-20T02:03:09;13.50;99.90
3602;DHT22;1815;50.950;6.920;2022-12-20T02:05:39;13.40;99.90
3602;DHT22;1815;50.950;6.920;2022-12-20T02:08:06;13.40;99.90
3602;DHT22;1815;50.950;6.920;2022-12-20T02:10:50;13.50;99.90
3602;DHT22;1815;50.950;6.920;2022-12-20T02:13:50;13.40;99.90
3602;DHT22;1815;50.950;6.920;2022-12-20T02:16:27;13.50;99.90
3602;DHT22;1815;50.950;6.920;2022-12-20T02:29:59;13.30;99.90
3602;DHT22;1815;50.950;6.920;2022-12-20T02:32:41;13.20;99.90
3602;DHT22;1815;50.950;6.920;2022-12-20T02:35:12;13.20;99.90
3602;DHT22;1815;50.950;6.920;2022-12-20T02:37:53;13.20;99.90
3602;DHT22;1815;50.950;6.920;2022-12-20T02:40:24;13.10;99.90
3602;DHT22;1815;50.950;6.920;2022-12-20T02:42:54;13.10;99.90
3602;DHT22;1815;50.950;6.920;2022-12-20T02:45:25;13.10;99.90
3602;DHT22;1815;50.950;6.920;2022-12-20T02:47:59;13.00;99.90
3602;DHT22;1815;50.950;6.920;2022-12-20T02:50:39;13.00;99.90
3602;DHT22;1815;50.950;6.920;2022-12-20T02:53:06;12.90;99.90
3602;DHT22;1815;50.950;6.920;2022-12-20T02:55:47;12.80;99.90
3602;DHT22;1815;50.950;6.920;2022-12-20T02:58:31;12.80;99.90
3602;DHT22;1815;50.950;6.920;2022-12-20T03:01:03;12.70;99.90
3602;DHT22;1815;50.950;6.920;2022-12-20T03:03:32;12.70;99.90
3602;DHT22;1815;50.950;6.920;2022-12-20T03:05:59;12.60;99.90
3602;DHT22;1815;50.950;6.920;2022-12-20T03:08:25;12.60;99.90
3602;DHT22;1815;50.950;6.920;2022-12-20T03:10:52;12.60;99.90
3602;DHT22;1815;50.950;6.920;2022-12-20T03:13:19;12.60;99.90
3602;DHT22;1815;50.950;6.920;2022-12-20T03:15:50;12.60;99.90
3602;DHT22;1815;50.950;6.920;2022-12-20T03:18:17;12.60;99.90
3602;DHT22;1815;50.950;6.920;2022-12-20T03:20:43;12.60;99.90
3602;DHT22;1815;50.950;6.920;2022-12-20T03:23:08;12.60;99.90
3602;DHT22;1815;50.950;6.920;2022-12-20T03:25:34;12.50;99.90
3602;DHT22;1815;50.950;6.920;2022-12-20T03:28:02;12.50;99.90
3602;DHT22;1815;50.950;6.920;2022-12-20T03:30:27;12.50;99.90
3602;DHT22;1815;50.950;6.920;2022-12-20T03:32:53;12.40;99.90
3602;DHT22;1815;50.950;6.920;2022-12-20T03:35:19;12.40;99.90
3602;DHT22;1815;50.950;6.920;2022-12-20T03:37:45;12.40;99.90
3602;DHT22;1815;50.950;6.920;2022-12-20T03:40:11;12.40;99.90
3602;DHT22;1815;50.950;6.920;2022-12-20T03:42:37;12.40;99.90
3602;DHT22;1815;50.950;6.920;2022-12-20T03:45:04;12.50;99.90
3602;DHT22;1815;50.950;6.920;2022-12-20T03:47:30;12.50;99.90
3602;DHT22;1815;50.950;6.920;2022-12-20T03:49:56;12.50;99.90
3602;DHT22;1815;50.950;6.920;2022-12-20T03:52:22;12.50;99.90
3602;DHT22;1815;50.950;6.920;2022-12-20T03:54:48;12.50;99.90
3602;DHT22;1815;50.950;6.920;2022-12-20T03:57:17;12.50;99.90
3602;DHT22;1815;50.950;6.920;2022-12-20T03:59:45;12.50;99.90
3602;DHT22;1815;50.950;6.920;2022-12-20T04:02:14;12.50;99.90
3602;DHT22;1815;50.950;6.920;2022-12-20T04:04:40;12.50;99.90
3602;DHT22;1815;50.950;6.920;2022-12-20T04:07:06;12.40;99.90
3602;DHT22;1815;50.950;6.920;2022-12-20T04:09:34;12.40;99.90
3602;DHT22;1815;50.950;6.920;2022-12-20T04:12:06;12.40;99.90
3602;DHT22;1815;50.950;6.920;2022-12-20T04:14:34;12.30;99.90
3602;DHT22;1815;50.950;6.920;2022-12-20T04:17:00;12.30;99.90
3602;DHT22;1815;50.950;6.920;2022-12-20T04:19:27;12.20;99.90
3602;DHT22;1815;50.950;6.920;2022-12-20T04:21:53;12.20;99.90
3602;DHT22;1815;50.950;6.920;2022-12-20T04:24:21;12.10;99.90
3602;DHT22;1815;50.950;6.920;2022-12-20T04:27:18;12.10;99.90
3602;DHT22;1815;50.950;6.920;2022-12-20T04:29:45;12.00;99.90
3602;DHT22;1815;50.950;6.920;2022-12-20T04:32:13;12.00;99.90
3602;DHT22;1815;50.950;6.920;2022-12-20T04:34:39;11.90;99.90
3602;DHT22;1815;50.950;6.920;2022-12-20T04:37:05;11.90;99.90
3602;DHT22;1815;50.950;6.920;2022-12-20T04:39:42;11.80;99.90
3602;DHT22;1815;50.950;6.920;2022-12-20T04:42:18;11.80;99.90
3602;DHT22;1815;50.950;6.920;2022-12-20T04:44:44;11.80;99.90
3602;DHT22;1815;50.950;6.920;2022-12-20T04:47:12;11.80;99.90
3602;DHT22;1815;50.950;6.920;2022-12-20T04:49:38;11.80;99.90
3602;DHT22;1815;50.950;6.920;2022-12-20T04:52:04;11.70;99.90
3602;DHT22;1815;50.950;6.920;2022-12-20T04:54:49;11.80;99.90
3602;DHT22;1815;50.950;6.920;2022-12-20T04:57:20;11.80;99.90
3602;DHT22;1815;50.950;6.920;2022-12-20T04:59:47;11.80;99.90
3602;DHT22;1815;50.950;6.920;2022-12-20T05:02:13;11.80;99.90
3602;DHT22;1815;50.950;6.920;2022-12-20T05:04:47;11.80;99.90
3602;DHT22;1815;50.950;6.920;2022-12-20T05:07:13;11.80;99.90
3602;DHT22;1815;50.950;6.920;2022-12-20T05:09:45;11.80;99.90
3602;DHT22;1815;50.950;6.920;2022-12-20T05:12:10;11.80;99.90
3602;DHT22;1815;50.950;6.920;2022-12-20T05:14:36;11.80;99.90
3602;DHT22;1815;50.950;6.920;2022-12-20T05:17:02;11.90;99.90
3602;DHT22;1815;50.950;6.920;2022-12-20T05:19:28;11.90;99.90
3602;DHT22;1815;50.950;6.920;2022-12-20T05:21:54;11.90;99.90
3602;DHT22;1815;50.950;6.920;2022-12-20T05:24:42;12.00;99.90
3602;DHT22;1815;50.950;6.920;2022-12-20T05:27:30;12.00;99.90
3602;DHT22;1815;50.950;6.920;2022-12-20T05:29:56;12.00;99.90
3602;DHT22;1815;50.950;6.920;2022-12-20T05:32:22;12.00;99.90
3602;DHT22;1815;50.950;6.920;2022-12-20T05:34:50;12.00;99.90
3602;DHT22;1815;50.950;6.920;2022-12-20T05:37:17;12.10;99.90
3602;DHT22;1815;50.950;6.920;2022-12-20T05:39:44;12.10;99.90
3602;DHT22;1815;50.950;6.920;2022-12-20T05:42:16;12.10;99.90
3602;DHT22;1815;50.950;6.920;2022-12-20T05:44:43;12.10;99.90
3602;DHT22;1815;50.950;6.920;2022-12-20T05:47:09;12.10;99.90
3602;DHT22;1815;50.950;6.920;2022-12-20T05:49:36;12.10;99.90
3602;DHT22;1815;50.950;6.920;2022-12-20T05:52:04;12.10;99.90
3602;DHT22;1815;50.950;6.920;2022-12-20T05:54:30;12.20;99.90
3602;DHT22;1815;50.950;6.920;2022-12-20T05:57:09;12.20;99.90
3602;DHT22;1815;50.950;6.920;2022-12-20T05:59:38;12.20;99.90
3602;DHT22;1815;50.950;6.920;2022-12-20T06:02:07;12.20;99.90
3602;DHT22;1815;50.950;6.920;2022-12-20T06:04:33;12.20;99.90
3602;DHT22;1815;50.950;6.920;2022-12-20T06:07:04;12.20;99.90
3602;DHT22;1815;50.950;6.920;2022-12-20T06:09:31;12.20;99.90
3602;DHT22;1815;50.950;6.920;2022-12-20T06:12:03;12.20;99.90
3602;DHT22;1815;50.950;6.920;2022-12-20T06:14:31;12.20;99.90
3602;DHT22;1815;50.950;6.920;2022-12-20T06:16:57;12.20;99.90
3602;DHT22;1815;50.950;6.920;2022-12-20T06:19:23;12.20;99.90
3602;DHT22;1815;50.950;6.920;2022-12-20T06:21:52;12.20;99.90
3602;DHT22;1815;50.950;6.920;2022-12-20T06:24:24;12.20;99.90
3602;DHT22;1815;50.950;6.920;2022-12-20T06:26:52;12.20;99.90
3602;DHT22;1815;50.950;6.920;2022-12-20T06:29:18;12.20;99.90
3602;DHT22;1815;50.950;6.920;2022-12-20T06:31:53;12.20;99.90
3602;DHT22;1815;50.950;6.920;2022-12-20T06:34:19;12.20;99.90
3602;DHT22;1815;50.950;6.920;2022-12-20T06:36:45;12.20;99.90
3602;DHT22;1815;50.950;6.920;2022-12-20T06:39:16;12.20;99.90
3602;DHT22;1815;50.950;6.920;2022-12-20T06:41:58;12.20;99.90
3602;DHT22;1815;50.950;6.920;2022-12-20T06:44:24;12.20;99.90
3602;DHT22;1815;50.950;6.920;2022-12-20T06:46:50;12.20;99.90
3602;DHT22;1815;50.950;6.920;2022-12-20T06:49:16;12.20;99.90
3602;DHT22;1815;50.950;6.920;2022-12-20T06:51:42;12.20;99.90
3602;DHT22;1815;50.950;6.920;2022-12-20T06:54:08;12.20;99.90
3602;DHT22;1815;50.950;6.920;2022-12-20T06:56:34;12.20;99.90
3602;DHT22;1815;50.950;6.920;2022-12-20T06:59:04;12.20;99.90
3602;DHT22;1815;50.950;6.920;2022-12-20T07:01:30;12.20;99.90
3602;DHT22;1815;50.950;6.920;2022-12-20T07:03:59;12.20;99.90
3602;DHT22;1815;50.950;6.920;2022-12-20T07:06:31;12.10;99.90
3602;DHT22;1815;50.950;6.920;2022-12-20T07:08:57;12.10;99.90
3602;DHT22;1815;50.950;6.920;2022-12-20T07:11:23;12.10;99.90
3602;DHT22;1815;50.950;6.920;2022-12-20T07:13:54;12.10;99.90
3602;DHT22;1815;50.950;6.920;2022-12-20T07:16:20;12.10;99.90
3602;DHT22;1815;50.950;6.920;2022-12-20T07:18:51;12.10;99.90
3602;DHT22;1815;50.950;6.920;2022-12-20T07:21:18;12.10;99.90
3602;DHT22;1815;50.950;6.920;2022-12-20T07:23:45;12.10;99.90
3602;DHT22;1815;50.950;6.920;2022-12-20T07:26:11;12.10;99.90
3602;DHT22;1815;50.950;6.920;2022-12-20T07:28:38;12.00;99.90
3602;DHT22;1815;50.950;6.920;2022-12-20T07:31:05;12.00;99.90
3602;DHT22;1815;50.950;6.920;2022-12-20T07:33:31;12.00;99.90
3602;DHT22;1815;50.950;6.920;2022-12-20T07:36:06;12.00;99.90
3602;DHT22;1815;50.950;6.920;2022-12-20T07:38:35;12.00;99.90
3602;DHT22;1815;50.950;6.920;2022-12-20T07:41:13;11.90;99.90
3602;DHT22;1815;50.950;6.920;2022-12-20T07:43:39;11.90;99.90
3602;DHT22;1815;50.950;6.920;2022-12-20T07:46:06;11.90;99.90
3602;DHT22;1815;50.950;6.920;2022-12-20T07:48:32;11.90;99.90
3602;DHT22;1815;50.950;6.920;2022-12-20T07:51:05;11.90;99.90
3602;DHT22;1815;50.950;6.920;2022-12-20T07:53:33;11.90;99.90
3602;DHT22;1815;50.950;6.920;2022-12-20T07:56:01;11.90;99.90
3602;DHT22;1815;50.950;6.920;2022-12-20T07:58:28;11.90;99.90
3602;DHT22;1815;50.950;6.920;2022-12-20T08:00:56;11.90;99.90
3602;DHT22;1815;50.950;6.920;2022-12-20T08:03:26;11.90;99.90
3602;DHT22;1815;50.950;6.920;2022-12-20T08:05:55;12.00;99.90
3602;DHT22;1815;50.950;6.920;2022-12-20T08:08:22;11.90;99.90
3602;DHT22;1815;50.950;6.920;2022-12-20T08:10:49;12.00;99.90
3602;DHT22;1815;50.950;6.920;2022-12-20T08:13:15;12.00;99.90
3602;DHT22;1815;50.950;6.920;2022-12-20T08:15:41;12.00;99.90
3602;DHT22;1815;50.950;6.920;2022-12-20T08:18:07;12.10;99.90
3602;DHT22;1815;50.950;6.920;2022-12-20T08:20:32;12.10;99.90
3602;DHT22;1815;50.950;6.920;2022-12-20T08:22:58;12.20;99.90
3602;DHT22;1815;50.950;6.920;2022-12-20T08:25:24;12.30;99.90
3602;DHT22;1815;50.950;6.920;2022-12-20T08:27:50;12.30;99.90
3602;DHT22;1815;50.950;6.920;2022-12-20T08:30:16;12.40;99.90
3602;DHT22;1815;50.950;6.920;2022-12-20T08:32:41;12.40;99.90
3602;DHT22;1815;50.950;6.920;2022-12-20T08:35:07;12.50;99.90
3602;DHT22;1815;50.950;6.920;2022-12-20T08:37:33;12.50;99.90
3602;DHT22;1815;50.950;6.920;2022-12-20T08:39:59;12.50;99.90
3602;DHT22;1815;50.950;6.920;2022-12-20T08:42:26;12.50;99.90
3602;DHT22;1815;50.950;6.920;2022-12-20T08:44:52;12.60;99.90
3602;DHT22;1815;50.950;6.920;2022-12-20T08:47:18;12.60;99.90
3602;DHT22;1815;50.950;6.920;2022-12-20T08:49:43;12.60;99.90
3602;DHT22;1815;50.950;6.920;2022-12-20T08:52:09;12.60;99.90
3602;DHT22;1815;50.950;6.920;2022-12-20T08:54:35;12.60;99.90
3602;DHT22;1815;50.950;6.920;2022-12-20T08:57:01;12.60;99.90
3602;DHT22;1815;50.950;6.920;2022-12-20T08:59:26;12.60;99.90
3602;DHT22;1815;50.950;6.920;2022-12-20T09:01:52;12.60;99.90
3602;DHT22;1815;50.950;6.920;2022-12-20T09:04:19;12.60;99.90
3602;DHT22;1815;50.950;6.920;2022-12-20T09:06:46;12.70;99.90
3602;DHT22;1815;50.950;6.920;2022-12-20T09:09:11;12.70;99.90
3602;DHT22;1815;50.950;6.920;2022-12-20T09:11:38;12.70;99.90
3602;DHT22;1815;50.950;6.920;2022-12-20T09:14:04;12.80;99.90
3602;DHT22;1815;50.950;6.920;2022-12-20T09:16:31;12.70;99.90
3602;DHT22;1815;50.950;6.920;2022-12-20T09:18:58;12.80;99.90
3602;DHT22;1815;50.950;6.920;2022-12-20T09:21:24;12.80;99.90
3602;DHT22;1815;50.950;6.920;2022-12-20T09:23:52;12.80;99.90
3602;DHT22;1815;50.950;6.920;2022-12-20T09:26:19;12.80;99.90
3602;DHT22;1815;50.950;6.920;2022-12-20T09:28:46;12.70;99.90
3602;DHT22;1815;50.950;6.920;2022-12-20T09:31:17;12.70;99.90
3602;DHT22;1815;50.950;6.920;2022-12-20T09:33:44;12.70;99.90
3602;DHT22;1815;50.950;6.920;2022-12-20T09:36:18;12.70;99.90
3602;DHT22;1815;50.950;6.920;2022-12-20T09:38:45;12.70;99.90
3602;DHT22;1815;50.950;6.920;2022-12-20T09:41:40;12.70;99.90
3602;DHT22;1815;50.950;6.920;2022-12-20T09:44:30;12.70;99.90
3602;DHT22;1815;50.950;6.920;2022-12-20T09:47:03;12.70;99.90
3602;DHT22;1815;50.950;6.920;2022-12-20T09:49:33;12.70;99.90
3602;DHT22;1815;50.950;6.920;2022-12-20T09:58:07;12.80;99.90
3602;DHT22;1815;50.950;6.920;2022-12-20T10:00:16;12.80;99.90
3602;DHT22;1815;50.950;6.920;2022-12-20T10:02:46;12.90;99.90
3602;DHT22;1815;50.950;6.920;2022-12-20T10:05:34;12.90;99.90
3602;DHT22;1815;50.950;6.920;2022-12-20T10:08:13;12.90;99.90
3602;DHT22;1815;50.950;6.920;2022-12-20T10:10:53;13.00;99.90
3602;DHT22;1815;50.950;6.920;2022-12-20T10:13:26;12.90;99.90
3602;DHT22;1815;50.950;6.920;2022-12-20T10:24:18;12.90;99.90
3602;DHT22;1815;50.950;6.920;2022-12-20T10:26:48;12.90;99.90
3602;DHT22;1815;50.950;6.920;2022-12-20T10:29:14;12.90;99.90
3602;DHT22;1815;50.950;6.920;2022-12-20T10:31:40;13.00;99.90
3602;DHT22;1815;50.950;6.920;2022-12-20T10:34:06;13.00;99.90
3602;DHT22;1815;50.950;6.920;2022-12-20T10:36:36;13.00;99.90
3602;DHT22;1815;50.950;6.920;2022-12-20T10:39:05;13.00;99.90
3602;DHT22;1815;50.950;6.920;2022-12-20T10:44:26;13.10;99.90
3602;DHT22;1815;50.950;6.920;2022-12-20T10:46:59;13.10;99.90
3602;DHT22;1815;50.950;6.920;2022-12-20T10:49:37;13.10;99.90
3602;DHT22;1815;50.950;6.920;2022-12-20T10:54:36;13.20;99.90
3602;DHT22;1815;50.950;6.920;2022-12-20T10:57:20;13.20;99.90
3602;DHT22;1815;50.950;6.920;2022-12-20T11:00:02;13.20;99.90
3602;DHT22;1815;50.950;6.920;2022-12-20T11:02:36;13.20;99.90
3602;DHT22;1815;50.950;6.920;2022-12-20T11:07:34;13.30;99.90
3602;DHT22;1815;50.950;6.920;2022-12-20T11:10:03;13.30;99.90
3602;DHT22;1815;50.950;6.920;2022-12-20T11:12:56;13.30;99.90
3602;DHT22;1815;50.950;6.920;2022-12-20T11:15:28;13.30;99.90
3602;DHT22;1815;50.950;6.920;2022-12-20T11:18:00;13.30;99.90
3602;DHT22;1815;50.950;6.920;2022-12-20T11:28:49;13.50;99.90
3602;DHT22;1815;50.950;6.920;2022-12-20T11:37:01;13.60;99.90
3602;DHT22;1815;50.950;6.920;2022-12-20T11:44:59;13.80;99.90
3602;DHT22;1815;50.950;6.920;2022-12-20T11:56:13;13.80;99.90
3602;DHT22;1815;50.950;6.920;2022-12-20T11:58:54;13.90;99.90
3602;DHT22;1815;50.950;6.920;2022-12-20T12:01:26;13.90;99.90
3602;DHT22;1815;50.950;6.920;2022-12-20T12:04:17;13.90;99.90
3602;DHT22;1815;50.950;6.920;2022-12-20T12:07:09;13.90;99.90
3602;DHT22;1815;50.950;6.920;2022-12-20T12:09:37;14.00;99.90
3602;DHT22;1815;50.950;6.920;2022-12-20T12:12:09;14.00;99.90
3602;DHT22;1815;50.950;6.920;2022-12-20T12:17:37;14.00;99.90
3602;DHT22;1815;50.950;6.920;2022-12-20T12:23:23;14.10;99.90
3602;DHT22;1815;50.950;6.920;2022-12-20T12:25:51;14.10;99.90
3602;DHT22;1815;50.950;6.920;2022-12-20T12:28:18;14.10;99.90
3602;DHT22;1815;50.950;6.920;2022-12-20T12:30:51;14.10;99.90
3602;DHT22;1815;50.950;6.920;2022-12-20T12:33:23;14.10;99.90
3602;DHT22;1815;50.950;6.920;2022-12-20T12:46:43;13.80;99.90
3602;DHT22;1815;50.950;6.920;2022-12-20T12:49:14;13.80;99.90
3602;DHT22;1815;50.950;6.920;2022-12-20T12:51:48;13.80;99.90
3602;DHT22;1815;50.950;6.920;2022-12-20T12:54:38;13.70;99.90
3602;DHT22;1815;50.950;6.920;2022-12-20T12:57:16;13.70;99.90
3602;DHT22;1815;50.950;6.920;2022-12-20T12:59:47;13.70;99.90
3602;DHT22;1815;50.950;6.920;2022-12-20T13:04:55;13.70;99.90
3602;DHT22;1815;50.950;6.920;2022-12-20T13:07:43;13.70;99.90
3602;DHT22;1815;50.950;6.920;2022-12-20T13:17:58;13.70;99.90
3602;DHT22;1815;50.950;6.920;2022-12-20T13:20:30;13.70;99.90
3602;DHT22;1815;50.950;6.920;2022-12-20T13:25:41;13.70;99.90
3602;DHT22;1815;50.950;6.920;2022-12-20T13:36:36;13.60;99.90
3602;DHT22;1815;50.950;6.920;2022-12-20T13:41:51;13.60;99.90
3602;DHT22;1815;50.950;6.920;2022-12-20T13:44:45;13.60;99.90
3602;DHT22;1815;50.950;6.920;2022-12-20T13:47:27;13.60;99.90
3602;DHT22;1815;50.950;6.920;2022-12-20T13:49:59;13.50;99.90
3602;DHT22;1815;50.950;6.920;2022-12-20T13:52:32;13.50;99.90
3602;DHT22;1815;50.950;6.920;2022-12-20T13:55:04;13.50;99.90
3602;DHT22;1815;50.950;6.920;2022-12-20T13:57:41;13.50;99.90
3602;DHT22;1815;50.950;6.920;2022-12-20T14:00:27;13.50;99.90
3602;DHT22;1815;50.950;6.920;2022-12-20T14:02:53;13.50;99.90
3602;DHT22;1815;50.950;6.920;2022-12-20T14:05:25;13.50;99.90
3602;DHT22;1815;50.950;6.920;2022-12-20T14:08:20;13.50;99.90
3602;DHT22;1815;50.950;6.920;2022-12-20T14:10:46;13.50;99.90
3602;DHT22;1815;50.950;6.920;2022-12-20T14:13:20;13.50;99.90
3602;DHT22;1815;50.950;6.920;2022-12-20T14:15:46;13.50;99.90
3602;DHT22;1815;50.950;6.920;2022-12-20T14:18:21;13.50;99.90
3602;DHT22;1815;50.950;6.920;2022-12-20T14:20:54;13.60;99.90
3602;DHT22;1815;50.950;6.920;2022-12-20T14:23:23;13.60;99.90
3602;DHT22;1815;50.950;6.920;2022-12-20T14:25:55;13.60;99.90
3602;DHT22;1815;50.950;6.920;2022-12-20T14:28:42;13.50;99.90
3602;DHT22;1815;50.950;6.920;2022-12-20T14:31:26;13.50;99.90
3602;DHT22;1815;50.950;6.920;2022-12-20T14:34:11;13.50;99.90
3602;DHT22;1815;50.950;6.920;2022-12-20T14:36:46;13.50;99.90
3602;DHT22;1815;50.950;6.920;2022-12-20T14:39:32;13.40;99.90
3602;DHT22;1815;50.950;6.920;2022-12-20T14:42:12;13.40;99.90
3602;DHT22;1815;50.950;6.920;2022-12-20T14:44:38;13.40;99.90
3602;DHT22;1815;50.950;6.920;2022-12-20T14:47:12;13.40;99.90
3602;DHT22;1815;50.950;6.920;2022-12-20T14:49:39;13.40;99.90
3602;DHT22;1815;50.950;6.920;2022-12-20T14:52:16;13.30;99.90
3602;DHT22;1815;50.950;6.920;2022-12-20T14:55:06;13.30;99.90
3602;DHT22;1815;50.950;6.920;2022-12-20T14:57:38;13.30;99.90
3602;DHT22;1815;50.950;6.920;2022-12-20T15:02:41;13.30;99.90
3602;DHT22;1815;50.950;6.920;2022-12-20T15:10:51;13.30;99.90
3602;DHT22;1815;50.950;6.920;2022-12-20T15:13:19;13.30;99.90
3602;DHT22;1815;50.950;6.920;2022-12-20T15:15:45;13.30;99.90
3602;DHT22;1815;50.950;6.920;2022-12-20T15:18:16;13.30;99.90
3602;DHT22;1815;50.950;6.920;2022-12-20T15:20:43;13.30;99.90
3602;DHT22;1815;50.950;6.920;2022-12-20T15:23:18;13.30;99.90
3602;DHT22;1815;50.950;6.920;2022-12-20T15:25:45;13.30;99.90
3602;DHT22;1815;50.950;6.920;2022-12-20T15:28:20;13.30;99.90
3602;DHT22;1815;50.950;6.920;2022-12-20T15:30:47;13.40;99.90
3602;DHT22;1815;50.950;6.920;2022-12-20T15:33:25;13.40;99.90
3602;DHT22;1815;50.950;6.920;2022-12-20T15:35:52;13.50;99.90
3602;DHT22;1815;50.950;6.920;2022-12-20T15:38:23;13.50;99.90
3602;DHT22;1815;50.950;6.920;2022-12-20T15:41:05;13.50;99.90
3602;DHT22;1815;50.950;6.920;2022-12-20T15:43:36;13.50;99.90
3602;DHT22;1815;50.950;6.920;2022-12-20T15:46:03;13.50;99.90
3602;DHT22;1815;50.950;6.920;2022-12-20T15:48:28;13.40;99.90
3602;DHT22;1815;50.950;6.920;2022-12-20T15:50:56;13.40;99.90
3602;DHT22;1815;50.950;6.920;2022-12-20T15:53:30;13.40;99.90
3602;DHT22;1815;50.950;6.920;2022-12-20T15:55:56;13.30;99.90
3602;DHT22;1815;50.950;6.920;2022-12-20T15:58:23;13.30;99.90
3602;DHT22;1815;50.950;6.920;2022-12-20T16:00:50;13.30;99.90
3602;DHT22;1815;50.950;6.920;2022-12-20T16:03:22;13.30;99.90
3602;DHT22;1815;50.950;6.920;2022-12-20T16:05:49;13.20;99.90
3602;DHT22;1815;50.950;6.920;2022-12-20T16:08:18;13.20;99.90
3602;DHT22;1815;50.950;6.920;2022-12-20T16:10:45;13.20;99.90
3602;DHT22;1815;50.950;6.920;2022-12-20T16:13:18;13.20;99.90
3602;DHT22;1815;50.950;6.920;2022-12-20T16:15:44;13.20;99.90
3602;DHT22;1815;50.950;6.920;2022-12-20T16:18:10;13.20;99.90
3602;DHT22;1815;50.950;6.920;2022-12-20T16:20:42;13.20;99.90
3602;DHT22;1815;50.950;6.920;2022-12-20T16:23:19;13.20;99.90
3602;DHT22;1815;50.950;6.920;2022-12-20T16:25:47;13.20;99.90
3602;DHT22;1815;50.950;6.920;2022-12-20T16:28:13;13.20;99.90
3602;DHT22;1815;50.950;6.920;2022-12-20T16:30:39;13.20;99.90
3602;DHT22;1815;50.950;6.920;2022-12-20T16:33:05;13.20;99.90
3602;DHT22;1815;50.950;6.920;2022-12-20T16:35:36;13.10;99.90
3602;DHT22;1815;50.950;6.920;2022-12-20T16:38:02;13.10;99.90
3602;DHT22;1815;50.950;6.920;2022-12-20T16:40:31;13.10;99.90
3602;DHT22;1815;50.950;6.920;2022-12-20T16:43:00;13.10;99.90
3602;DHT22;1815;50.950;6.920;2022-12-20T16:45:29;13.10;99.90
3602;DHT22;1815;50.950;6.920;2022-12-20T16:47:55;13.10;99.90
3602;DHT22;1815;50.950;6.920;2022-12-20T16:50:23;13.20;99.90
3602;DHT22;1815;50.950;6.920;2022-12-20T16:52:49;13.20;99.90
3602;DHT22;1815;50.950;6.920;2022-12-20T16:55:33;13.20;99.90
3602;DHT22;1815;50.950;6.920;2022-12-20T16:57:58;13.20;99.90
3602;DHT22;1815;50.950;6.920;2022-12-20T17:00:25;13.20;99.90
3602;DHT22;1815;50.950;6.920;2022-12-20T17:02:54;13.20;99.90
3602;DHT22;1815;50.950;6.920;2022-12-20T17:05:32;13.30;99.90
3602;DHT22;1815;50.950;6.920;2022-12-20T17:07:58;13.30;99.90
3602;DHT22;1815;50.950;6.920;2022-12-20T17:10:25;13.30;99.90
3602;DHT22;1815;50.950;6.920;2022-12-20T17:12:52;13.30;99.90
3602;DHT22;1815;50.950;6.920;2022-12-20T17:15:23;13.30;99.90
3602;DHT22;1815;50.950;6.920;2022-12-20T17:17:50;13.30;99.90
3602;DHT22;1815;50.950;6.920;2022-12-20T17:20:17;13.30;99.90
3602;DHT22;1815;50.950;6.920;2022-12-20T17:22:44;13.40;99.90
3602;DHT22;1815;50.950;6.920;2022-12-20T17:25:21;13.40;99.90
3602;DHT22;1815;50.950;6.920;2022-12-20T17:27:48;13.40;99.90
3602;DHT22;1815;50.950;6.920;2022-12-20T17:30:14;13.40;99.90
3602;DHT22;1815;50.950;6.920;2022-12-20T17:32:40;13.30;99.90
3602;DHT22;1815;50.950;6.920;2022-12-20T17:35:16;13.40;99.90
3602;DHT22;1815;50.950;6.920;2022-12-20T17:37:44;13.40;99.90
3602;DHT22;1815;50.950;6.920;2022-12-20T17:40:13;13.40;99.90
3602;DHT22;1815;50.950;6.920;2022-12-20T17:42:40;13.40;99.90
3602;DHT22;1815;50.950;6.920;2022-12-20T17:45:19;13.40;99.90
3602;DHT22;1815;50.950;6.920;2022-12-20T17:47:45;13.40;99.90
3602;DHT22;1815;50.950;6.920;2022-12-20T17:50:17;13.40;99.90
3602;DHT22;1815;50.950;6.920;2022-12-20T17:52:47;13.40;99.90
3602;DHT22;1815;50.950;6.920;2022-12-20T17:55:21;13.40;99.90
3602;DHT22;1815;50.950;6.920;2022-12-20T17:57:47;13.40;99.90
3602;DHT22;1815;50.950;6.920;2022-12-20T18:00:23;13.30;99.90
3602;DHT22;1815;50.950;6.920;2022-12-20T18:02:49;13.30;99.90
3602;DHT22;1815;50.950;6.920;2022-12-20T18:05:15;13.40;99.90
3602;DHT22;1815;50.950;6.920;2022-12-20T18:07:42;13.40;99.90
3602;DHT22;1815;50.950;6.920;2022-12-20T18:10:09;13.40;99.90
3602;DHT22;1815;50.950;6.920;2022-12-20T18:12:35;13.40;99.90